Time;durP1;ratioP1;P1;durP2;ratioP2;P2;SDS_P1;SDS_P2;PMS_P1;PMS_P2;Temp;Humidity;BMP_temperature;BMP_pressure;BME280_temperature;BME280_humidity;BME280_pressure;Samples;Min_cycle;Max_cycle;Signal;HPM_P1;HPM_P2
2022/11/03 00:00:39;;;;;;;32.90;18.00;;;;;;;4.54;76.69;101103.87;2033152;87;31057;-60
2022/11/03 00:03:40;;;;;;;33.13;17.12;;;;;;;4.50;76.83;101100.81;2033000;87;33396;-61
2022/11/03 00:06:43;;;;;;;30.77;16.02;;;;;;;4.46;76.77;101103.06;2033084;87;30463;-62
2022/11/03 00:09:44;;;;;;;37.17;18.98;;;;;;;4.43;76.78;101095.13;2033247;87;27835;-61
2022/11/03 00:12:46;;;;;;;29.82;16.50;;;;;;;4.39;76.78;101102.69;2032715;87;28703;-61
2022/11/03 00:15:48;;;;;;;32.50;16.90;;;;;;;4.35;76.81;101102.31;2032929;87;31434;-62
2022/11/03 00:18:51;;;;;;;27.52;15.48;;;;;;;4.32;76.79;101108.97;2032575;87;34411;-62
2022/11/03 00:21:52;;;;;;;31.10;16.55;;;;;;;4.28;76.76;101098.85;2036559;87;29407;-61
2022/11/03 00:24:54;;;;;;;28.90;16.50;;;;;;;4.24;76.76;101100.63;2044778;86;27790;-61
2022/11/03 00:27:55;;;;;;;35.68;17.32;;;;;;;4.21;76.76;101099.80;2044908;87;29336;-61
2022/11/03 00:30:57;;;;;;;34.10;18.40;;;;;;;4.17;76.87;101095.41;2044718;87;32232;-61
2022/11/03 00:34:00;;;;;;;38.88;19.20;;;;;;;4.14;76.87;101102.09;2044896;87;33215;-61
2022/11/03 00:37:01;;;;;;;34.45;17.98;;;;;;;4.11;76.86;101101.66;2045151;86;29339;-62
2022/11/03 00:40:04;;;;;;;41.02;18.95;;;;;;;4.08;76.95;101096.38;2044630;87;27652;-62
2022/11/03 00:43:05;;;;;;;28.87;17.70;;;;;;;4.05;76.94;101100.41;2045344;87;29282;-62
2022/11/03 00:46:08;;;;;;;32.88;18.12;;;;;;;4.01;76.94;101099.54;2044976;87;30785;-61
2022/11/03 00:49:09;;;;;;;30.48;17.12;;;;;;;3.97;76.99;101088.98;2045237;86;32959;-61
2022/11/03 00:52:10;;;;;;;33.30;17.25;;;;;;;3.94;76.99;101088.12;2040226;87;29365;-62
2022/11/03 00:55:12;;;;;;;38.35;19.32;;;;;;;3.91;77.01;101088.60;2033297;87;27552;-62
2022/11/03 00:58:13;;;;;;;36.35;18.82;;;;;;;3.86;77.09;101084.67;2033237;87;29081;-61
2022/11/03 01:01:27;;;;;;;36.68;18.95;;;;;;;3.84;77.14;101087.78;2033054;87;32252;-62
2022/11/03 01:07:48;;;;;;;37.15;18.40;;;;;;;3.80;77.13;101090.92;2033024;87;29789;-63
2022/11/03 01:14:15;;;;;;;32.45;17.80;;;;;;;3.74;77.23;101086.98;2033332;87;29897;-61
2022/11/03 01:17:25;;;;;;;32.45;16.95;;;;;;;3.72;77.22;101082.59;2033027;87;31492;-61
2022/11/03 01:20:27;;;;;;;32.67;17.95;;;;;;;3.67;77.25;101087.91;2030056;87;33457;-61
2022/11/03 01:23:28;;;;;;;61.92;29.92;;;;;;;3.65;77.29;101090.59;2044532;87;30697;-63
2022/11/03 01:26:30;;;;;;;37.10;20.60;;;;;;;3.64;77.41;101086.64;2045397;87;28280;-63
2022/11/03 01:29:32;;;;;;;36.58;18.77;;;;;;;3.61;77.39;101079.57;2045142;86;29060;-61
2022/11/03 01:32:33;;;;;;;38.90;19.25;;;;;;;3.59;77.32;101080.03;2045217;87;31623;-62
2022/11/03 01:35:34;;;;;;;39.92;21.68;;;;;;;3.57;77.34;101078.30;2045250;87;33336;-61
2022/11/03 01:38:36;;;;;;;34.98;19.40;;;;;;;3.54;77.33;101079.64;2045281;86;29714;-61
2022/11/03 01:41:38;;;;;;;38.50;21.60;;;;;;;3.50;77.36;101079.66;2045070;86;27678;-61
2022/11/03 01:44:46;;;;;;;47.08;21.27;;;;;;;3.47;77.37;101085.00;2044886;86;28735;-61
2022/11/03 01:47:48;;;;;;;34.33;18.87;;;;;;;3.45;77.42;101088.10;2044849;86;31280;-61
2022/11/03 01:50:49;;;;;;;34.65;19.37;;;;;;;3.43;77.38;101086.34;2044227;86;33415;-62
2022/11/03 01:53:53;;;;;;;33.80;19.42;;;;;;;3.39;77.40;101077.55;2033193;87;29721;-62
2022/11/03 01:56:55;;;;;;;35.60;19.25;;;;;;;3.36;77.38;101076.23;2033054;87;27677;-62
2022/11/03 01:59:57;;;;;;;36.88;19.60;;;;;;;3.33;77.39;101073.60;2033261;87;29499;-61
2022/11/03 02:02:59;;;;;;;41.33;20.12;;;;;;;3.29;77.39;101066.13;2033187;87;31086;-61
2022/11/03 02:06:02;;;;;;;39.05;20.68;;;;;;;3.27;77.42;101072.34;2033269;87;33487;-61
2022/11/03 02:09:07;;;;;;;32.93;19.30;;;;;;;3.25;77.48;101071.47;2033122;87;29719;-61
2022/11/03 02:12:08;;;;;;;38.13;20.25;;;;;;;3.23;77.50;101070.13;2033386;87;36709;-61
2022/11/03 02:15:17;;;;;;;38.73;19.65;;;;;;;3.21;77.51;101067.08;2032292;87;29962;-62
2022/11/03 02:18:22;;;;;;;36.15;18.40;;;;;;;3.19;77.46;101069.75;2033150;87;31030;-62
2022/11/03 02:21:57;;;;;;;34.13;18.98;;;;;;;3.16;77.54;101056.52;2037353;87;33786;-62
2022/11/03 02:25:33;;;;;;;35.15;19.48;;;;;;;3.14;77.56;101055.22;2043531;86;29755;-62
2022/11/03 02:28:34;;;;;;;37.13;17.60;;;;;;;3.10;77.66;101054.80;2044982;86;27904;-61
2022/11/03 02:31:44;;;;;;;30.75;17.95;;;;;;;3.06;77.61;101052.19;2045129;86;30013;-61
2022/11/03 02:35:11;;;;;;;29.50;16.55;;;;;;;3.02;77.62;101049.98;2045225;86;33671;-61
2022/11/03 02:38:15;;;;;;;26.10;16.17;;;;;;;2.97;77.59;101042.08;2044664;86;33936;-61
2022/11/03 02:41:17;;;;;;;24.72;15.05;;;;;;;2.94;77.58;101045.20;2025756;86;29337;-61
2022/11/03 02:44:19;;;;;;;30.02;15.75;;;;;;;2.90;77.60;101041.67;2003183;88;27767;-62
2022/11/03 02:47:23;;;;;;;26.85;16.05;;;;;;;2.86;77.58;101046.11;2009990;88;28681;-61
2022/11/03 02:50:30;;;;;;;28.90;15.85;;;;;;;2.84;77.72;101042.59;2003218;88;31100;-61
2022/11/03 02:53:36;;;;;;;30.88;16.35;;;;;;;2.82;77.71;101040.84;2034328;87;32970;-60
2022/11/03 02:56:55;;;;;;;23.52;14.95;;;;;;;2.79;77.68;101039.53;2034149;86;29388;-61
2022/11/03 03:00:04;;;;;;;26.48;15.05;;;;;;;2.75;77.63;101042.66;2034376;87;28241;-61
2022/11/03 03:03:10;;;;;;;27.62;15.95;;;;;;;2.71;77.71;101032.97;2033984;86;28669;-61
2022/11/03 03:06:18;;;;;;;23.42;14.05;;;;;;;2.67;77.80;101030.78;2033654;87;32248;-61
2022/11/03 03:09:27;;;;;;;25.72;14.90;;;;;;;2.66;77.84;101036.06;2032524;87;32980;-60
2022/11/03 03:12:31;;;;;;;23.45;14.63;;;;;;;2.62;77.82;101031.24;2034135;87;30133;-61
2022/11/03 03:15:47;;;;;;;24.63;15.25;;;;;;;2.61;77.89;101028.16;2034427;87;27689;-62
2022/11/03 03:19:12;;;;;;;27.22;15.95;;;;;;;2.60;77.98;101034.80;2031093;87;28682;-61
2022/11/03 03:22:46;;;;;;;29.25;16.95;;;;;;;2.55;77.91;101026.43;2041150;87;31048;-62
2022/11/03 03:25:56;;;;;;;26.82;16.48;;;;;;;2.54;77.97;101025.99;2009593;88;33042;-60
2022/11/03 03:29:17;;;;;;;26.02;15.60;;;;;;;2.53;78.25;101017.63;2003475;88;29329;-63
2022/11/03 03:32:21;;;;;;;36.15;18.87;;;;;;;2.52;78.16;101019.83;2010317;88;27628;-62
2022/11/03 03:35:25;;;;;;;150.70;77.33;;;;;;;2.50;78.47;101018.09;2010225;88;29122;-61
2022/11/03 03:38:34;;;;;;;55.33;31.55;;;;;;;2.50;78.72;101013.66;2003477;88;31104;-61
2022/11/03 03:41:37;;;;;;;49.73;27.40;;;;;;;2.50;78.77;101004.86;2006957;87;33991;-61
2022/11/03 03:44:39;;;;;;;46.95;27.05;;;;;;;2.49;78.60;101003.10;2042762;87;29380;-61
2022/11/03 03:47:41;;;;;;;41.63;24.25;;;;;;;2.48;78.51;101001.34;2042399;87;27652;-60
2022/11/03 03:50:43;;;;;;;37.98;21.00;;;;;;;2.45;78.48;100996.95;2017656;87;28699;-61
2022/11/03 03:53:50;;;;;;;39.40;22.35;;;;;;;2.43;78.44;100995.63;2020269;87;32246;-61
2022/11/03 03:57:00;;;;;;;41.02;25.37;;;;;;;2.41;78.47;101000.49;2017773;88;33921;-61
2022/11/03 04:00:03;;;;;;;42.45;25.05;;;;;;;2.40;78.55;101002.24;2020424;87;29397;-61
2022/11/03 04:03:05;;;;;;;40.50;25.27;;;;;;;2.40;78.82;100998.28;1986747;89;27750;-61
2022/11/03 04:06:08;;;;;;;37.83;22.22;;;;;;;2.40;78.93;100997.41;2020243;88;29132;-61
2022/11/03 04:09:09;;;;;;;43.78;25.43;;;;;;;2.38;78.77;100997.44;2020335;87;32212;-61
2022/11/03 04:22:16;;;;;;;36.38;21.40;;;;;;;2.29;78.56;100992.17;2035075;87;29890;-61
2022/11/03 04:25:17;;;;;;;40.88;22.02;;;;;;;2.25;78.60;100992.63;2042443;87;32404;-61
2022/11/03 04:28:19;;;;;;;36.50;21.52;;;;;;;2.24;78.58;100987.33;2066862;85;33415;-61
2022/11/03 04:31:21;;;;;;;45.88;23.30;;;;;;;2.20;78.56;100983.83;2042607;87;29296;-61
2022/11/03 04:34:23;;;;;;;37.10;21.60;;;;;;;2.19;78.63;100983.85;2042889;87;27625;-61
2022/11/03 04:37:27;;;;;;;36.25;19.65;;;;;;;2.17;78.68;100983.84;2042626;87;29144;-61
2022/11/03 04:40:29;;;;;;;35.70;19.95;;;;;;;2.18;78.81;100988.70;2042189;86;32231;-61
2022/11/03 04:43:35;;;;;;;52.88;27.85;;;;;;;2.20;79.27;100983.83;2045434;87;33369;-61
2022/11/03 04:46:36;;;;;;;48.35;24.23;;;;;;;2.24;79.44;100976.33;2044712;87;29403;-63
2022/11/03 04:49:45;;;;;;;44.55;27.07;;;;;;;2.26;79.41;100975.89;2038057;87;27689;-62
2022/11/03 04:52:58;;;;;;;47.13;28.73;;;;;;;2.25;79.50;100962.66;2019877;88;29539;-62
2022/11/03 04:55:59;;;;;;;49.60;29.45;;;;;;;2.28;79.69;100966.19;2011851;88;31635;-63
2022/11/03 04:59:00;;;;;;;45.38;26.25;;;;;;;2.33;79.91;100969.23;2019505;88;34456;-62
2022/11/03 05:02:06;;;;;;;39.35;24.20;;;;;;;2.34;79.80;100968.34;1995877;88;30485;-61
2022/11/03 05:05:21;;;;;;;34.08;20.32;;;;;;;2.35;79.71;100966.14;2011508;88;27667;-61
2022/11/03 05:08:23;;;;;;;40.00;21.40;;;;;;;2.36;79.68;100962.19;2019762;88;28743;-62
2022/11/03 05:11:33;;;;;;;40.60;20.62;;;;;;;2.35;79.61;100958.20;1995601;88;31101;-61
2022/11/03 05:14:36;;;;;;;30.80;18.23;;;;;;;2.34;79.55;100959.98;2011918;88;34106;-61
2022/11/03 05:17:38;;;;;;;44.53;21.68;;;;;;;2.34;79.59;100951.16;2019807;88;30507;-62
2022/11/03 05:20:47;;;;;;;34.85;20.60;;;;;;;2.34;79.64;100957.34;2010191;87;28457;-61
2022/11/03 05:23:59;;;;;;;39.10;20.52;;;;;;;2.33;79.74;100955.58;2008420;88;29809;-65
2022/11/03 05:27:00;;;;;;;37.08;19.73;;;;;;;2.33;79.61;100948.97;2045173;87;31047;-61
2022/11/03 05:30:05;;;;;;;32.25;19.42;;;;;;;2.32;79.65;100944.56;2045097;87;33494;-61
2022/11/03 05:33:36;;;;;;;39.93;24.37;;;;;;;2.33;79.82;100946.33;2067308;85;29335;-62
2022/11/03 05:36:38;;;;;;;43.80;25.97;;;;;;;2.34;80.03;100941.91;2045069;87;27763;-61
2022/11/03 05:39:44;;;;;;;39.25;23.07;;;;;;;2.36;80.20;100944.10;2045142;87;28088;-62
2022/11/03 05:42:46;;;;;;;42.73;21.97;;;;;;;2.36;80.11;100947.64;2010255;88;32238;-62
2022/11/03 05:45:51;;;;;;;44.27;22.73;;;;;;;2.37;80.09;100945.86;2001065;87;33010;-62
2022/11/03 05:48:52;;;;;;;69.85;40.08;;;;;;;2.37;80.20;100943.22;2021502;87;30674;-61
2022/11/03 05:51:54;;;;;;;42.50;23.22;;;;;;;2.37;80.27;100947.18;2020451;87;27528;-62
2022/11/03 05:54:58;;;;;;;46.33;26.60;;;;;;;2.37;80.44;100944.53;1999054;89;29161;-62
2022/11/03 05:58:13;;;;;;;36.63;21.75;;;;;;;2.38;80.49;100942.33;1998881;89;31077;-63
2022/11/03 06:01:35;;;;;;;45.52;25.05;;;;;;;2.38;80.60;100933.97;1985542;89;34121;-61
2022/11/03 06:04:39;;;;;;;43.38;21.57;;;;;;;2.41;80.51;100935.71;2019466;88;29093;-61
2022/11/03 06:07:40;;;;;;;40.88;22.87;;;;;;;2.41;80.66;100936.58;1998760;89;27658;-63
2022/11/03 06:10:54;;;;;;;40.48;22.20;;;;;;;2.43;80.67;100939.23;2019795;88;28751;-61
2022/11/03 06:13:57;;;;;;;40.10;23.07;;;;;;;2.46;80.61;100939.22;1999119;89;31432;-61
2022/11/03 06:17:06;;;;;;;48.15;28.55;;;;;;;2.48;80.69;100939.20;1976996;89;34210;-61
2022/11/03 06:20:13;;;;;;;45.70;26.07;;;;;;;2.51;80.74;100937.86;2004431;88;30121;-61
2022/11/03 06:23:15;;;;;;;53.23;27.62;;;;;;;2.53;80.83;100938.27;2045047;87;27591;-61
2022/11/03 06:26:23;;;;;;;45.60;26.57;;;;;;;2.57;80.91;100933.83;2045127;87;29517;-61
2022/11/03 06:29:25;;;;;;;47.93;25.48;;;;;;;2.61;80.93;100933.39;2045195;87;31051;-61
2022/11/03 06:32:27;;;;;;;49.48;27.05;;;;;;;2.66;80.83;100939.51;2010566;88;34062;-61
2022/11/03 06:35:28;;;;;;;46.33;25.57;;;;;;;2.70;80.91;100943.47;2044771;87;29426;-61
2022/11/03 06:38:31;;;;;;;57.20;32.50;;;;;;;2.76;81.15;100953.13;2045382;87;27695;-63
2022/11/03 06:41:35;;;;;;;79.95;43.20;;;;;;;2.83;81.35;100946.02;2038413;86;28666;-61
2022/11/03 06:44:44;;;;;;;62.17;35.55;;;;;;;2.91;81.42;100946.83;2010003;88;31489;-63
2022/11/03 06:47:46;;;;;;;56.25;34.27;;;;;;;2.99;81.57;100943.70;1998065;88;33000;-61
2022/11/03 06:50:47;;;;;;;69.53;38.65;;;;;;;3.09;81.62;100952.88;2034072;87;29670;-63
2022/11/03 06:53:50;;;;;;;54.98;32.23;;;;;;;3.18;81.72;100951.03;2034215;87;27714;-61
2022/11/03 06:56:52;;;;;;;53.45;30.52;;;;;;;3.31;81.88;100946.98;2033710;87;29901;-61
2022/11/03 06:59:55;;;;;;;45.75;26.15;;;;;;;3.44;81.96;100949.04;2033980;87;31409;-61
2022/11/03 07:03:33;;;;;;;41.23;24.72;;;;;;;3.57;82.08;100944.05;2033839;87;33404;-62
2022/11/03 07:06:36;;;;;;;36.65;19.90;;;;;;;3.73;82.25;100951.83;2033937;87;29484;-61
2022/11/03 07:09:38;;;;;;;40.12;18.23;;;;;;;3.92;82.61;100941.92;2033864;87;27917;-61
2022/11/03 07:12:40;;;;;;;33.48;17.95;;;;;;;4.12;82.57;100944.78;2034095;87;29200;-61
2022/11/03 07:15:43;;;;;;;27.60;16.65;;;;;;;4.30;82.62;100941.90;2034007;87;31060;-62
2022/11/03 07:18:46;;;;;;;29.85;16.00;;;;;;;4.49;82.62;100941.62;2041037;87;33347;-60
2022/11/03 07:21:54;;;;;;;31.12;16.37;;;;;;;4.70;82.93;100933.82;2046069;87;30043;-60
2022/11/03 07:25:05;;;;;;;34.53;16.97;;;;;;;4.94;82.87;100936.97;2010112;88;27687;-62
2022/11/03 07:28:08;;;;;;;32.03;16.32;;;;;;;5.13;82.62;100934.92;2003167;88;28694;-63
2022/11/03 07:31:14;;;;;;;28.40;14.30;;;;;;;5.31;82.31;100937.23;2010064;88;31397;-60
2022/11/03 07:34:21;;;;;;;24.95;13.80;;;;;;;5.50;82.15;100928.06;2010067;88;33357;-60
2022/11/03 07:37:23;;;;;;;32.42;17.42;;;;;;;5.71;82.13;100926.78;1976480;90;29349;-61
2022/11/03 07:40:26;;;;;;;33.20;15.55;;;;;;;5.90;82.04;100926.84;2009868;88;27715;-61
2022/11/03 07:43:32;;;;;;;27.75;15.80;;;;;;;6.10;81.96;100921.61;2012541;87;29093;-61
2022/11/03 07:46:33;;;;;;;21.70;14.45;;;;;;;6.33;82.19;100915.79;2017279;87;32290;-62
2022/11/03 07:49:35;;;;;;;24.85;12.90;;;;;;;6.59;82.03;100902.80;2007620;88;33337;-61
2022/11/03 07:52:36;;;;;;;25.43;13.93;;;;;;;6.80;81.58;100904.06;2022232;88;30471;-61
2022/11/03 07:55:37;;;;;;;25.30;14.50;;;;;;;6.98;81.65;100910.72;2022210;87;27702;-61
2022/11/03 07:58:39;;;;;;;20.90;13.30;;;;;;;7.19;81.34;100907.99;2022249;87;29964;-61
2022/11/03 08:01:47;;;;;;;22.85;13.43;;;;;;;7.44;81.36;100906.89;2021939;88;31237;-61
2022/11/03 08:04:49;;;;;;;29.00;15.35;;;;;;;7.71;81.41;100892.81;2007473;86;33701;-62
2022/11/03 08:07:50;;;;;;;22.60;12.60;;;;;;;7.99;81.48;100881.37;1953800;91;29898;-63
2022/11/03 08:10:51;;;;;;;23.30;12.68;;;;;;;8.24;80.92;100873.94;1986938;89;28056;-62
2022/11/03 08:13:53;;;;;;;18.45;11.73;;;;;;;8.47;80.90;100866.10;1986384;89;28691;-62
2022/11/03 08:16:54;;;;;;;20.80;12.63;;;;;;;8.66;80.45;100864.21;1986106;89;32355;-62
2022/11/03 08:19:56;;;;;;;19.95;12.15;;;;;;;8.84;80.24;100866.72;2002049;88;33187;-62
2022/11/03 08:22:57;;;;;;;27.22;12.90;;;;;;;8.99;80.02;100862.67;1953040;91;29422;-61
2022/11/03 08:25:58;;;;;;;21.12;11.05;;;;;;;9.12;79.67;100863.11;1986480;89;27689;-62
2022/11/03 08:29:00;;;;;;;23.27;10.72;;;;;;;9.23;79.50;100858.28;1953369;91;29998;-62
2022/11/03 08:32:01;;;;;;;18.07;10.00;;;;;;;9.35;79.13;100855.61;1986214;89;32242;-61
2022/11/03 08:35:03;;;;;;;24.95;10.93;;;;;;;9.48;78.69;100844.50;2001835;88;34437;-62
2022/11/03 08:38:04;;;;;;;24.65;11.38;;;;;;;9.58;78.77;100840.09;1953406;91;29365;-61
2022/11/03 08:41:06;;;;;;;18.20;10.48;;;;;;;9.72;78.73;100832.02;1986050;89;27644;-61
2022/11/03 08:44:07;;;;;;;23.38;10.88;;;;;;;9.85;78.50;100831.95;1987775;89;30098;-62
2022/11/03 08:47:08;;;;;;;25.35;11.08;;;;;;;9.97;77.95;100821.25;2000327;88;31090;-62
2022/11/03 08:50:10;;;;;;;24.80;11.55;;;;;;;10.07;77.70;100827.13;2044373;87;33009;-61
2022/11/03 08:53:11;;;;;;;26.25;12.80;;;;;;;10.17;77.68;100812.42;2045110;87;29695;-61
2022/11/03 08:56:12;;;;;;;21.87;11.20;;;;;;;10.33;77.67;100813.15;2045298;87;27681;-61
2022/11/03 08:59:13;;;;;;;22.98;9.85;;;;;;;10.48;77.51;100801.84;2009997;88;28661;-61
2022/11/03 09:02:15;;;;;;;28.30;9.03;;;;;;;10.67;77.00;100801.08;2044780;87;31227;-61
2022/11/03 09:05:16;;;;;;;22.00;9.38;;;;;;;10.77;75.86;100794.87;2045110;87;33417;-61
2022/11/03 09:08:17;;;;;;;17.67;8.50;;;;;;;10.90;76.14;100790.72;2045219;86;30516;-62
2022/11/03 09:11:18;;;;;;;16.93;7.10;;;;;;;11.02;74.96;100781.73;2045192;86;27720;-63
2022/11/03 09:14:20;;;;;;;17.20;6.33;;;;;;;11.13;75.76;100774.11;2045233;87;29030;-61
2022/11/03 09:17:21;;;;;;;20.50;5.42;;;;;;;11.33;75.32;100768.32;2042726;87;31274;-62
2022/11/03 09:20:23;;;;;;;10.75;5.08;;;;;;;11.55;74.59;100764.19;2033148;87;32988;-63
2022/11/03 09:23:24;;;;;;;16.27;5.58;;;;;;;11.74;74.44;100757.95;2033277;87;29718;-61
2022/11/03 09:26:26;;;;;;;13.18;5.42;;;;;;;11.95;73.45;100754.72;2033370;87;27709;-62
2022/11/03 09:29:27;;;;;;;12.95;5.83;;;;;;;12.14;73.81;100742.17;2033367;87;29354;-63
2022/11/03 09:32:29;;;;;;;13.65;4.90;;;;;;;12.35;72.94;100738.00;2032812;87;33166;-62
2022/11/03 09:35:30;;;;;;;15.68;4.83;;;;;;;12.52;72.65;100733.59;2033238;87;32951;-63
2022/11/03 09:38:31;;;;;;;10.68;5.30;;;;;;;12.64;72.71;100724.92;2033002;87;30723;-63
2022/11/03 09:41:32;;;;;;;10.65;4.70;;;;;;;12.80;71.87;100716.91;2033348;87;27880;-63
2022/11/03 09:44:35;;;;;;;11.20;4.30;;;;;;;12.92;71.74;100719.44;2012282;87;28681;-64
2022/11/03 09:47:40;;;;;;;13.72;6.83;;;;;;;13.01;70.78;100714.05;2033952;87;31489;-64
2022/11/03 09:50:42;;;;;;;8.65;4.70;;;;;;;13.04;70.21;100708.02;2037546;86;33099;-65
2022/11/03 09:53:43;;;;;;;16.45;5.50;;;;;;;13.07;70.44;100711.05;2037610;87;29282;-63
2022/11/03 09:56:46;;;;;;;12.20;5.67;;;;;;;13.06;69.07;100702.58;2037926;86;28119;-65
2022/11/03 09:59:49;;;;;;;16.45;5.70;;;;;;;13.05;68.70;100703.04;2037928;86;29867;-64
2022/11/03 10:02:50;;;;;;;16.50;4.70;;;;;;;13.05;69.32;100704.38;2037831;86;31039;-65
2022/11/03 10:05:52;;;;;;;11.12;3.67;;;;;;;13.04;69.00;100696.41;2037533;86;34177;-63
2022/11/03 10:08:53;;;;;;;13.25;3.92;;;;;;;13.06;68.34;100694.51;2037798;86;30584;-65
2022/11/03 10:11:54;;;;;;;8.88;3.47;;;;;;;13.06;67.41;100683.75;2037848;87;27688;-66
2022/11/03 10:14:56;;;;;;;13.03;3.90;;;;;;;13.05;67.21;100677.48;2032854;86;28683;-64
2022/11/03 10:17:57;;;;;;;13.08;2.90;;;;;;;13.01;67.00;100677.74;2051727;86;32200;-63
2022/11/03 10:21:06;;;;;;;9.23;3.35;;;;;;;12.97;66.82;100675.70;2051594;86;34075;-65
2022/11/03 10:24:11;;;;;;;7.85;3.20;;;;;;;12.94;66.38;100662.88;2051663;86;30136;-67
2022/11/03 10:27:25;;;;;;;11.85;3.08;;;;;;;12.95;66.19;100656.55;2051723;86;27616;-64
2022/11/03 10:30:26;;;;;;;14.38;4.58;;;;;;;12.92;67.00;100651.72;2051321;86;29860;-64
2022/11/03 10:33:35;;;;;;;9.88;3.35;;;;;;;12.90;66.05;100649.62;2051730;86;31031;-64
2022/11/03 10:36:36;;;;;;;11.12;3.50;;;;;;;12.83;66.07;100652.23;2051757;86;32981;-63
2022/11/03 10:39:38;;;;;;;7.53;3.70;;;;;;;12.78;65.46;100643.53;2051475;86;29758;-63
2022/11/03 10:42:39;;;;;;;14.00;4.00;;;;;;;12.75;66.11;100641.00;2076790;85;27710;-63
2022/11/03 10:45:40;;;;;;;9.48;4.28;;;;;;;12.74;65.78;100636.61;2082611;85;29319;-64
2022/11/03 10:48:41;;;;;;;9.75;4.30;;;;;;;12.73;65.63;100629.48;2082930;85;31427;-64
2022/11/03 10:51:47;;;;;;;8.63;3.80;;;;;;;12.75;66.17;100619.49;2082683;85;33825;-66
2022/11/03 10:54:50;;;;;;;10.88;3.77;;;;;;;12.78;65.54;100617.14;2082504;85;29968;-63
2022/11/03 10:57:56;;;;;;;13.38;4.37;;;;;;;12.81;65.87;100611.60;2082996;85;27726;-63
2022/11/03 11:00:58;;;;;;;11.20;4.25;;;;;;;12.87;65.91;100605.87;2082465;85;28673;-64
2022/11/03 11:03:59;;;;;;;13.18;4.20;;;;;;;12.88;65.13;100600.42;2037245;85;31526;-63
2022/11/03 11:07:00;;;;;;;10.03;4.58;;;;;;;12.92;65.77;100593.91;2083503;85;33848;-62
2022/11/03 11:10:18;;;;;;;13.70;4.83;;;;;;;12.97;65.46;100594.14;2083050;85;29364;-63
2022/11/03 11:13:24;;;;;;;10.98;4.62;;;;;;;12.99;65.19;100582.83;2071468;85;27727;-64
2022/11/03 11:16:52;;;;;;;12.33;4.75;;;;;;;13.01;65.38;100584.46;2053220;86;28683;-66
2022/11/03 11:20:32;;;;;;;12.07;4.22;;;;;;;13.06;65.85;100576.16;2053005;86;31492;-63
2022/11/03 11:23:40;;;;;;;9.68;3.80;;;;;;;13.11;65.41;100571.87;2052928;86;33419;-64
2022/11/03 11:26:43;;;;;;;10.63;4.72;;;;;;;13.15;65.42;100567.56;2052813;86;30640;-67
2022/11/03 11:29:45;;;;;;;11.70;4.78;;;;;;;13.17;64.60;100558.05;2053239;86;27792;-65
2022/11/03 11:32:52;;;;;;;7.60;3.87;;;;;;;13.16;64.74;100556.31;2068984;85;28857;-64
2022/11/03 11:35:59;;;;;;;7.53;3.60;;;;;;;13.18;64.61;100549.91;2081806;85;32295;-63
2022/11/03 11:39:02;;;;;;;7.28;3.45;;;;;;;13.21;64.36;100536.30;2082611;85;33689;-64
2022/11/03 11:42:16;;;;;;;12.28;3.75;;;;;;;13.25;63.96;100533.41;2082782;85;29407;-65
2022/11/03 11:45:24;;;;;;;13.65;3.98;;;;;;;13.28;64.43;100523.36;2080957;84;27731;-64
2022/11/03 11:48:25;;;;;;;8.65;3.45;;;;;;;13.32;64.40;100527.58;2074160;85;28690;-64
2022/11/03 11:51:26;;;;;;;9.30;4.17;;;;;;;13.36;63.69;100513.49;2080404;85;31405;-63
2022/11/03 11:54:28;;;;;;;10.23;4.08;;;;;;;13.37;64.01;100512.54;2073764;85;33005;-64
2022/11/03 11:57:33;;;;;;;13.62;4.17;;;;;;;13.37;64.15;100502.63;2064699;85;29915;-65
2022/11/03 12:00:35;;;;;;;7.70;3.87;;;;;;;13.37;64.15;100502.63;2034290;86;27711;-65
2022/11/03 12:03:40;;;;;;;10.95;4.25;;;;;;;13.41;64.08;100493.07;2033723;86;29924;-67
2022/11/03 12:06:42;;;;;;;8.58;3.08;;;;;;;13.43;63.75;100494.70;2058547;85;31048;-65
2022/11/03 12:09:44;;;;;;;13.05;3.95;;;;;;;13.44;62.88;100485.67;2021473;86;33386;-66
2022/11/03 12:12:45;;;;;;;10.70;4.03;;;;;;;13.45;63.20;100486.06;2031863;86;29420;-64
2022/11/03 12:15:55;;;;;;;13.43;4.53;;;;;;;13.47;63.02;100484.16;2035851;86;27720;-65
2022/11/03 12:19:18;;;;;;;8.65;3.40;;;;;;;13.47;62.82;100481.95;2036060;86;29502;-66
2022/11/03 12:22:31;;;;;;;12.78;4.97;;;;;;;13.47;61.91;100487.34;2022906;86;31465;-65
2022/11/03 12:25:35;;;;;;;14.40;4.12;;;;;;;13.48;62.45;100489.08;2034773;86;33014;-67
2022/11/03 12:28:37;;;;;;;15.20;4.20;;;;;;;13.51;62.45;100478.98;2034320;86;30118;-66
2022/11/03 12:31:38;;;;;;;10.75;3.90;;;;;;;13.53;62.10;100472.15;2036783;87;27723;-63
2022/11/03 12:34:40;;;;;;;6.10;3.47;;;;;;;13.56;62.29;100465.73;2030629;87;29855;-63
2022/11/03 12:37:42;;;;;;;12.05;4.50;;;;;;;13.58;62.11;100461.98;2040446;87;31721;-63
2022/11/03 12:40:43;;;;;;;9.73;3.58;;;;;;;13.58;61.15;100451.68;2042531;86;33838;-62
2022/11/03 12:43:45;;;;;;;9.85;3.75;;;;;;;13.56;61.30;100459.02;2041840;85;30659;-64
2022/11/03 12:46:47;;;;;;;12.18;4.75;;;;;;;13.43;61.52;100419.84;2037741;86;27745;-64
2022/11/03 12:49:48;;;;;;;12.33;4.55;;;;;;;13.56;61.70;100450.94;2038031;87;29110;-63
2022/11/03 12:52:49;;;;;;;10.95;4.33;;;;;;;13.45;62.27;100408.02;2037988;86;31421;-63
2022/11/03 12:55:51;;;;;;;13.03;5.25;;;;;;;13.45;62.27;100408.02;2038001;86;32763;-63
2022/11/03 12:58:52;;;;;;;11.18;4.80;;;;;;;13.57;62.15;100427.95;2037393;86;29840;-63
2022/11/03 13:01:53;;;;;;;17.95;4.67;;;;;;;13.56;61.68;100415.94;2034414;87;27764;-64
2022/11/03 13:04:54;;;;;;;12.70;4.95;;;;;;;13.55;62.06;100417.75;2036717;87;29467;-62
2022/11/03 13:07:56;;;;;;;12.10;5.33;;;;;;;13.54;61.72;100404.40;2033802;87;31054;-63
2022/11/03 13:10:58;;;;;;;9.83;4.72;;;;;;;13.55;62.06;100406.13;2032093;87;32865;-64
2022/11/03 13:13:59;;;;;;;9.83;4.37;;;;;;;13.52;61.96;100395.94;2032085;87;29746;-63
2022/11/03 13:17:02;;;;;;;7.85;3.42;;;;;;;13.54;61.75;100394.98;2034015;87;27734;-63
2022/11/03 13:20:06;;;;;;;12.88;4.75;;;;;;;13.54;61.27;100387.75;2032072;87;30004;-63
2022/11/03 13:23:07;;;;;;;12.93;4.30;;;;;;;13.53;61.58;100380.64;2037927;87;31878;-63
2022/11/03 13:26:09;;;;;;;12.25;3.92;;;;;;;13.53;61.13;100376.60;2045987;87;33467;-63
2022/11/03 13:29:10;;;;;;;9.35;3.80;;;;;;;13.54;60.58;100369.41;2045895;86;29913;-62
2022/11/03 13:32:11;;;;;;;10.15;3.87;;;;;;;13.52;61.33;100362.29;2046575;87;27684;-63
2022/11/03 13:35:13;;;;;;;12.15;4.47;;;;;;;13.42;60.78;100342.76;2046215;87;28851;-62
2022/11/03 13:38:15;;;;;;;11.73;4.12;;;;;;;13.54;60.76;100358.14;2046112;86;32201;-64
2022/11/03 13:41:16;;;;;;;10.43;4.00;;;;;;;13.52;60.05;100355.56;2046055;86;34126;-62
2022/11/03 13:44:18;;;;;;;8.18;3.70;;;;;;;13.48;59.45;100351.32;2053320;85;29400;-63
2022/11/03 13:47:19;;;;;;;7.58;3.60;;;;;;;13.47;60.06;100340.16;2082915;85;27671;-63
2022/11/03 13:50:21;;;;;;;13.22;3.62;;;;;;;13.46;60.51;100338.43;2082829;85;28731;-63
2022/11/03 13:53:23;;;;;;;9.43;3.80;;;;;;;13.44;60.11;100339.00;2071783;85;32268;-64
2022/11/03 13:56:25;;;;;;;8.98;3.20;;;;;;;13.38;59.79;100322.72;2052779;86;34450;-63
2022/11/03 13:59:26;;;;;;;16.30;4.08;;;;;;;13.32;59.50;100316.86;2053018;86;29978;-64
2022/11/03 14:02:28;;;;;;;12.80;4.03;;;;;;;13.27;60.10;100313.57;2052851;86;28296;-64
2022/11/03 14:05:29;;;;;;;12.15;4.37;;;;;;;13.22;59.74;100320.58;2053074;86;29886;-62
2022/11/03 14:08:31;;;;;;;7.12;3.80;;;;;;;13.14;59.65;100314.32;2053151;86;31404;-63
2022/11/03 14:14:52;;;;;;;13.22;6.35;;;;;;;13.04;60.42;100305.08;2052991;86;30177;-63
2022/11/03 14:17:53;;;;;;;17.98;6.90;;;;;;;12.98;60.83;100294.68;2053614;86;27731;-64
2022/11/03 14:20:55;;;;;;;16.85;6.28;;;;;;;12.92;60.92;100290.05;2053157;86;29779;-64
2022/11/03 14:23:56;;;;;;;11.63;5.20;;;;;;;12.88;61.12;100292.55;2069103;85;31639;-62
2022/11/03 14:26:57;;;;;;;16.42;4.83;;;;;;;12.83;60.98;100285.70;2083171;85;33308;-62